CheckWX is a tool to help pilots better visualize weather data.  It is not intended as a substitute for an official pre-flight weather briefing.

01:32:56 UTC

MMMY TAF
General Mariano Escobedo International Airport
Monterrey, Mexico
TAF MMMY 232306Z 2400/2506 12012KT 6SM HZ BKN200 TX25/2421Z TN10/2412Z BECMG 2402/2403 03005KT FM240800 02005KT 6SM HZ SCT200 BECMG 2417/2418 02012KT P6SM FM242100 08015KT P6SM SKC BECMG 2503/2504 09012KT BKN200

Feb-24@
00:00 UTC

Feb-24 @ 00:00 UTC

Feb-24@
02:00 UTC

Feb-24 @ 02:00 UTC

TAF MMMY 232306Z 2400/2506 12012KT 6SM HZ BKN200 TX25/2421Z TN10/2412Z
Wind
  • 120° at 12 KTS
Conditions
Haze
Cloud Levels
  • Broken at 20,000' AGL

Feb-24@
02:00 UTC

Feb-24 @ 02:00 UTC

Feb-24@
08:00 UTC

Feb-24 @ 08:00 UTC

BECMG 2402/2403 03005KT

Becoming

Becoming Conditions expected by Sun, Feb 24, 2019 @ 03:00 UTC

Wind
  • 030° at 5 KTS
Conditions
Haze
Cloud Levels
  • Broken at 20,000' AGL

Feb-24@
08:00 UTC

Feb-24 @ 08:00 UTC

Feb-24@
17:00 UTC

Feb-24 @ 17:00 UTC

FM240800 02005KT 6SM HZ SCT200

From

From Standard forecast or significant change

Wind
  • 020° at 5 KTS
Conditions
Haze
Cloud Levels
  • Scattered at 20,000' AGL

Feb-24@
17:00 UTC

Feb-24 @ 17:00 UTC

Feb-24@
21:00 UTC

Feb-24 @ 21:00 UTC

BECMG 2417/2418 02012KT P6SM

Becoming

Becoming Conditions expected by Sun, Feb 24, 2019 @ 18:00 UTC

Wind
  • 020° at 12 KTS
Conditions
Haze
Cloud Levels
  • Scattered at 20,000' AGL

Feb-24@
21:00 UTC

Feb-24 @ 21:00 UTC

Feb-25@
03:00 UTC

Feb-25 @ 03:00 UTC

FM242100 08015KT P6SM SKC

From

From Standard forecast or significant change

Wind
  • 080° at 15 KTS
Cloud Levels
  • Clear skies

Feb-25@
03:00 UTC

Feb-25 @ 03:00 UTC

Feb-25@
06:00 UTC

Feb-25 @ 06:00 UTC

BECMG 2503/2504 09012KT BKN200

Becoming

Becoming Conditions expected by Mon, Feb 25, 2019 @ 04:00 UTC

Wind
  • 090° at 12 KTS
Cloud Levels
  • Broken at 20,000' AGL